sensor_id;sensor_type;location;lat;lon;timestamp;temperature;humidity
75583;HTU21D;64161;46.312;44.310;2022-10-20T00:01:41;7.68;82.82
75583;HTU21D;64161;46.312;44.310;2022-10-20T00:04:07;7.68;82.84
75583;HTU21D;64161;46.312;44.310;2022-10-20T00:06:33;7.68;82.55
75583;HTU21D;64161;46.312;44.310;2022-10-20T00:09:02;7.68;82.40
75583;HTU21D;64161;46.312;44.310;2022-10-20T00:11:29;7.65;82.61
75583;HTU21D;64161;46.312;44.310;2022-10-20T00:17:00;7.60;82.48
75583;HTU21D;64161;46.312;44.310;2022-10-20T00:19:27;7.57;82.73
75583;HTU21D;64161;46.312;44.310;2022-10-20T00:21:53;7.54;82.72
75583;HTU21D;64161;46.312;44.310;2022-10-20T00:24:19;7.52;82.63
75583;HTU21D;64161;46.312;44.310;2022-10-20T00:26:47;7.49;82.97
75583;HTU21D;64161;46.312;44.310;2022-10-20T00:29:14;7.46;82.49
75583;HTU21D;64161;46.312;44.310;2022-10-20T00:31:41;7.43;82.82
75583;HTU21D;64161;46.312;44.310;2022-10-20T00:34:08;7.42;82.79
75583;HTU21D;64161;46.312;44.310;2022-10-20T00:36:34;7.39;82.76
75583;HTU21D;64161;46.312;44.310;2022-10-20T00:39:02;7.37;82.76
75583;HTU21D;64161;46.312;44.310;2022-10-20T00:41:30;7.34;82.60
75583;HTU21D;64161;46.312;44.310;2022-10-20T00:47:13;7.27;82.35
75583;HTU21D;64161;46.312;44.310;2022-10-20T00:49:41;7.25;82.58
75583;HTU21D;64161;46.312;44.310;2022-10-20T00:52:08;7.24;82.97
75583;HTU21D;64161;46.312;44.310;2022-10-20T00:54:36;7.24;82.90
75583;HTU21D;64161;46.312;44.310;2022-10-20T00:57:03;7.25;83.16
75583;HTU21D;64161;46.312;44.310;2022-10-20T00:59:33;7.27;82.35
75583;HTU21D;64161;46.312;44.310;2022-10-20T01:02:01;7.29;82.65
75583;HTU21D;64161;46.312;44.310;2022-10-20T01:04:30;7.32;82.62
75583;HTU21D;64161;46.312;44.310;2022-10-20T01:10:06;7.37;83.50
75583;HTU21D;64161;46.312;44.310;2022-10-20T01:15:25;7.32;82.26
75583;HTU21D;64161;46.312;44.310;2022-10-20T01:26:37;7.32;82.06
75583;HTU21D;64161;46.312;44.310;2022-10-20T01:31:48;7.33;83.55
75583;HTU21D;64161;46.312;44.310;2022-10-20T01:42:23;7.34;83.26
75583;HTU21D;64161;46.312;44.310;2022-10-20T01:44:54;7.39;82.76
75583;HTU21D;64161;46.312;44.310;2022-10-20T01:47:23;7.40;82.71
75583;HTU21D;64161;46.312;44.310;2022-10-20T01:49:51;7.45;83.00
75583;HTU21D;64161;46.312;44.310;2022-10-20T01:52:19;7.52;83.42
75583;HTU21D;64161;46.312;44.310;2022-10-20T01:54:46;7.61;83.74
75583;HTU21D;64161;46.312;44.310;2022-10-20T02:00:09;7.78;83.43
75583;HTU21D;64161;46.312;44.310;2022-10-20T02:02:57;7.85;83.00
75583;HTU21D;64161;46.312;44.310;2022-10-20T02:08:31;7.98;82.55
75583;HTU21D;64161;46.312;44.310;2022-10-20T02:11:27;8.02;82.44
75583;HTU21D;64161;46.312;44.310;2022-10-20T02:13:58;8.06;82.70
75583;HTU21D;64161;46.312;44.310;2022-10-20T02:16:34;8.11;82.62
75583;HTU21D;64161;46.312;44.310;2022-10-20T02:19:03;8.14;83.26
75583;HTU21D;64161;46.312;44.310;2022-10-20T02:21:39;8.15;82.37
75583;HTU21D;64161;46.312;44.310;2022-10-20T02:24:08;8.18;82.75
75583;HTU21D;64161;46.312;44.310;2022-10-20T02:26:36;8.18;82.55
75583;HTU21D;64161;46.312;44.310;2022-10-20T02:29:16;8.17;82.29
75583;HTU21D;64161;46.312;44.310;2022-10-20T02:31:43;8.16;82.65
75583;HTU21D;64161;46.312;44.310;2022-10-20T02:34:10;8.11;83.42
75583;HTU21D;64161;46.312;44.310;2022-10-20T02:36:39;8.07;83.32
75583;HTU21D;64161;46.312;44.310;2022-10-20T02:39:06;8.05;83.25
75583;HTU21D;64161;46.312;44.310;2022-10-20T02:41:33;8.04;83.26
75583;HTU21D;64161;46.312;44.310;2022-10-20T02:44:00;8.05;83.23
75583;HTU21D;64161;46.312;44.310;2022-10-20T02:46:26;8.05;83.13
75583;HTU21D;64161;46.312;44.310;2022-10-20T02:48:53;8.03;83.29
75583;HTU21D;64161;46.312;44.310;2022-10-20T02:51:19;8.03;82.82
75583;HTU21D;64161;46.312;44.310;2022-10-20T02:53:45;8.03;83.12
75583;HTU21D;64161;46.312;44.310;2022-10-20T02:56:12;8.04;83.30
75583;HTU21D;64161;46.312;44.310;2022-10-20T02:58:38;8.02;83.61
75583;HTU21D;64161;46.312;44.310;2022-10-20T03:01:04;8.01;83.81
75583;HTU21D;64161;46.312;44.310;2022-10-20T03:03:31;8.02;83.91
75583;HTU21D;64161;46.312;44.310;2022-10-20T03:05:57;8.00;84.07
75583;HTU21D;64161;46.312;44.310;2022-10-20T03:08:23;8.00;83.68
75583;HTU21D;64161;46.312;44.310;2022-10-20T03:10:49;7.99;84.17
75583;HTU21D;64161;46.312;44.310;2022-10-20T03:13:15;8.00;84.25
75583;HTU21D;64161;46.312;44.310;2022-10-20T03:15:42;7.98;84.00
75583;HTU21D;64161;46.312;44.310;2022-10-20T03:18:08;7.96;83.59
75583;HTU21D;64161;46.312;44.310;2022-10-20T03:20:34;7.93;83.81
75583;HTU21D;64161;46.312;44.310;2022-10-20T03:23:00;7.94;83.56
75583;HTU21D;64161;46.312;44.310;2022-10-20T03:25:27;7.93;83.36
75583;HTU21D;64161;46.312;44.310;2022-10-20T03:28:13;7.93;83.95
75583;HTU21D;64161;46.312;44.310;2022-10-20T03:30:40;7.96;83.44
75583;HTU21D;64161;46.312;44.310;2022-10-20T03:33:06;7.99;83.23
75583;HTU21D;64161;46.312;44.310;2022-10-20T03:35:32;8.04;83.88
75583;HTU21D;64161;46.312;44.310;2022-10-20T03:37:58;8.08;83.73
75583;HTU21D;64161;46.312;44.310;2022-10-20T03:40:24;8.12;83.72
75583;HTU21D;64161;46.312;44.310;2022-10-20T03:42:51;8.17;83.61
75583;HTU21D;64161;46.312;44.310;2022-10-20T03:45:17;8.21;83.49
75583;HTU21D;64161;46.312;44.310;2022-10-20T03:47:44;8.26;83.79
75583;HTU21D;64161;46.312;44.310;2022-10-20T03:50:10;8.33;83.31
75583;HTU21D;64161;46.312;44.310;2022-10-20T03:52:36;8.42;83.53
75583;HTU21D;64161;46.312;44.310;2022-10-20T03:55:03;8.50;83.36
75583;HTU21D;64161;46.312;44.310;2022-10-20T03:57:29;8.62;83.76
75583;HTU21D;64161;46.312;44.310;2022-10-20T03:59:55;8.82;83.51
75583;HTU21D;64161;46.312;44.310;2022-10-20T04:02:33;9.03;82.55
75583;HTU21D;64161;46.312;44.310;2022-10-20T04:05:00;9.21;82.93
75583;HTU21D;64161;46.312;44.310;2022-10-20T04:07:27;9.39;82.59
75583;HTU21D;64161;46.312;44.310;2022-10-20T04:09:53;9.63;82.44
75583;HTU21D;64161;46.312;44.310;2022-10-20T04:12:21;9.79;82.26
75583;HTU21D;64161;46.312;44.310;2022-10-20T04:15:13;9.93;81.72
75583;HTU21D;64161;46.312;44.310;2022-10-20T04:17:40;10.07;81.64
75583;HTU21D;64161;46.312;44.310;2022-10-20T04:20:06;10.25;82.13
75583;HTU21D;64161;46.312;44.310;2022-10-20T04:22:42;10.46;81.41
75583;HTU21D;64161;46.312;44.310;2022-10-20T04:25:09;10.74;81.47
75583;HTU21D;64161;46.312;44.310;2022-10-20T04:27:38;11.10;80.81
75583;HTU21D;64161;46.312;44.310;2022-10-20T04:30:05;11.53;79.69
75583;HTU21D;64161;46.312;44.310;2022-10-20T04:32:31;11.93;78.72
75583;HTU21D;64161;46.312;44.310;2022-10-20T04:34:58;12.25;78.35
75583;HTU21D;64161;46.312;44.310;2022-10-20T04:37:24;12.46;77.60
75583;HTU21D;64161;46.312;44.310;2022-10-20T04:39:51;12.52;77.14
75583;HTU21D;64161;46.312;44.310;2022-10-20T04:42:18;12.46;77.16
75583;HTU21D;64161;46.312;44.310;2022-10-20T04:44:44;12.34;77.49
75583;HTU21D;64161;46.312;44.310;2022-10-20T04:47:10;12.27;77.98
75583;HTU21D;64161;46.312;44.310;2022-10-20T04:49:37;12.25;78.37
75583;HTU21D;64161;46.312;44.310;2022-10-20T04:52:05;12.27;78.45
75583;HTU21D;64161;46.312;44.310;2022-10-20T04:54:31;12.33;78.40
75583;HTU21D;64161;46.312;44.310;2022-10-20T04:56:57;12.41;78.36
75583;HTU21D;64161;46.312;44.310;2022-10-20T04:59:24;12.47;78.30
75583;HTU21D;64161;46.312;44.310;2022-10-20T05:01:51;12.57;78.17
75583;HTU21D;64161;46.312;44.310;2022-10-20T05:04:17;12.69;78.06
75583;HTU21D;64161;46.312;44.310;2022-10-20T05:06:47;12.81;78.14
75583;HTU21D;64161;46.312;44.310;2022-10-20T05:09:15;12.96;77.99
75583;HTU21D;64161;46.312;44.310;2022-10-20T05:11:42;13.11;77.76
75583;HTU21D;64161;46.312;44.310;2022-10-20T05:14:09;13.24;77.32
75583;HTU21D;64161;46.312;44.310;2022-10-20T05:16:35;13.32;76.88
75583;HTU21D;64161;46.312;44.310;2022-10-20T05:19:02;13.36;76.73
75583;HTU21D;64161;46.312;44.310;2022-10-20T05:21:30;13.39;76.58
75583;HTU21D;64161;46.312;44.310;2022-10-20T05:23:59;13.41;76.50
75583;HTU21D;64161;46.312;44.310;2022-10-20T05:26:26;13.40;76.47
75583;HTU21D;64161;46.312;44.310;2022-10-20T05:28:54;13.41;76.53
75583;HTU21D;64161;46.312;44.310;2022-10-20T05:32:11;13.37;77.31
75583;HTU21D;64161;46.312;44.310;2022-10-20T05:34:55;13.60;77.89
75583;HTU21D;64161;46.312;44.310;2022-10-20T05:37:21;14.17;77.05
75583;HTU21D;64161;46.312;44.310;2022-10-20T05:39:48;14.57;75.89
75583;HTU21D;64161;46.312;44.310;2022-10-20T05:42:14;14.86;74.80
75583;HTU21D;64161;46.312;44.310;2022-10-20T05:44:40;14.94;74.35
75583;HTU21D;64161;46.312;44.310;2022-10-20T05:47:06;14.92;74.28
75583;HTU21D;64161;46.312;44.310;2022-10-20T05:49:32;14.85;74.20
75583;HTU21D;64161;46.312;44.310;2022-10-20T05:51:58;14.72;74.35
75583;HTU21D;64161;46.312;44.310;2022-10-20T05:54:24;14.62;74.31
75583;HTU21D;64161;46.312;44.310;2022-10-20T05:56:51;14.41;74.54
75583;HTU21D;64161;46.312;44.310;2022-10-20T05:59:19;14.29;74.60
75583;HTU21D;64161;46.312;44.310;2022-10-20T06:01:45;14.17;74.82
75583;HTU21D;64161;46.312;44.310;2022-10-20T06:04:16;14.09;75.36
75583;HTU21D;64161;46.312;44.310;2022-10-20T06:06:42;14.09;75.63
75583;HTU21D;64161;46.312;44.310;2022-10-20T06:09:14;14.17;75.56
75583;HTU21D;64161;46.312;44.310;2022-10-20T06:11:42;14.27;75.17
75583;HTU21D;64161;46.312;44.310;2022-10-20T06:14:08;14.37;75.12
75583;HTU21D;64161;46.312;44.310;2022-10-20T06:16:35;14.50;74.92
75583;HTU21D;64161;46.312;44.310;2022-10-20T06:19:03;14.66;74.48
75583;HTU21D;64161;46.312;44.310;2022-10-20T06:21:33;14.74;73.90
75583;HTU21D;64161;46.312;44.310;2022-10-20T06:24:01;14.75;73.81
75583;HTU21D;64161;46.312;44.310;2022-10-20T06:26:31;14.84;73.70
75583;HTU21D;64161;46.312;44.310;2022-10-20T06:28:58;14.97;73.54
75583;HTU21D;64161;46.312;44.310;2022-10-20T06:31:28;15.16;72.96
75583;HTU21D;64161;46.312;44.310;2022-10-20T06:33:57;15.36;72.29
75583;HTU21D;64161;46.312;44.310;2022-10-20T06:36:24;15.47;72.18
75583;HTU21D;64161;46.312;44.310;2022-10-20T06:38:53;15.52;71.36
75583;HTU21D;64161;46.312;44.310;2022-10-20T06:41:19;15.56;70.64
75583;HTU21D;64161;46.312;44.310;2022-10-20T06:43:47;15.53;70.48
75583;HTU21D;64161;46.312;44.310;2022-10-20T06:46:15;15.45;70.85
75583;HTU21D;64161;46.312;44.310;2022-10-20T06:48:43;15.42;70.62
75583;HTU21D;64161;46.312;44.310;2022-10-20T06:51:15;15.42;70.87
75583;HTU21D;64161;46.312;44.310;2022-10-20T06:53:44;15.27;70.86
75583;HTU21D;64161;46.312;44.310;2022-10-20T06:56:33;15.12;70.74
75583;HTU21D;64161;46.312;44.310;2022-10-20T06:58:59;14.98;71.35
75583;HTU21D;64161;46.312;44.310;2022-10-20T07:01:31;14.95;70.93
75583;HTU21D;64161;46.312;44.310;2022-10-20T07:04:02;14.88;70.82
75583;HTU21D;64161;46.312;44.310;2022-10-20T07:06:37;14.86;71.05
75583;HTU21D;64161;46.312;44.310;2022-10-20T07:09:06;14.97;71.43
75583;HTU21D;64161;46.312;44.310;2022-10-20T07:11:36;15.16;70.74
75583;HTU21D;64161;46.312;44.310;2022-10-20T07:14:03;15.44;70.12
75583;HTU21D;64161;46.312;44.310;2022-10-20T07:16:32;15.74;69.13
75583;HTU21D;64161;46.312;44.310;2022-10-20T07:19:00;15.88;68.38
75583;HTU21D;64161;46.312;44.310;2022-10-20T07:21:27;15.95;68.30
75583;HTU21D;64161;46.312;44.310;2022-10-20T07:23:56;16.02;67.91
75583;HTU21D;64161;46.312;44.310;2022-10-20T07:26:24;16.11;67.01
75583;HTU21D;64161;46.312;44.310;2022-10-20T07:28:54;16.17;66.71
75583;HTU21D;64161;46.312;44.310;2022-10-20T07:31:23;16.19;66.33
75583;HTU21D;64161;46.312;44.310;2022-10-20T07:33:50;16.22;66.62
75583;HTU21D;64161;46.312;44.310;2022-10-20T07:36:26;16.20;66.20
75583;HTU21D;64161;46.312;44.310;2022-10-20T07:38:55;16.06;65.29
75583;HTU21D;64161;46.312;44.310;2022-10-20T07:41:22;16.02;65.24
75583;HTU21D;64161;46.312;44.310;2022-10-20T07:43:48;16.01;65.17
75583;HTU21D;64161;46.312;44.310;2022-10-20T07:46:15;15.96;65.01
75583;HTU21D;64161;46.312;44.310;2022-10-20T07:48:41;15.92;65.19
75583;HTU21D;64161;46.312;44.310;2022-10-20T07:54:07;15.87;64.95
75583;HTU21D;64161;46.312;44.310;2022-10-20T07:56:38;15.80;64.73
75583;HTU21D;64161;46.312;44.310;2022-10-20T07:59:08;15.72;64.80
75583;HTU21D;64161;46.312;44.310;2022-10-20T08:01:36;15.73;64.66
75583;HTU21D;64161;46.312;44.310;2022-10-20T08:04:04;15.72;64.45
75583;HTU21D;64161;46.312;44.310;2022-10-20T08:06:31;15.74;64.25
75583;HTU21D;64161;46.312;44.310;2022-10-20T08:08:59;15.71;64.40
75583;HTU21D;64161;46.312;44.310;2022-10-20T08:11:27;15.61;64.25
75583;HTU21D;64161;46.312;44.310;2022-10-20T08:13:54;15.58;64.74
75583;HTU21D;64161;46.312;44.310;2022-10-20T08:16:20;15.60;64.63
75583;HTU21D;64161;46.312;44.310;2022-10-20T08:18:50;15.60;64.79
75583;HTU21D;64161;46.312;44.310;2022-10-20T08:21:18;15.66;64.85
75583;HTU21D;64161;46.312;44.310;2022-10-20T08:23:47;15.70;65.24
75583;HTU21D;64161;46.312;44.310;2022-10-20T08:26:19;15.72;65.91
75583;HTU21D;64161;46.312;44.310;2022-10-20T08:28:47;15.67;66.01
75583;HTU21D;64161;46.312;44.310;2022-10-20T08:31:15;15.54;66.05
75583;HTU21D;64161;46.312;44.310;2022-10-20T08:33:41;15.41;66.55
75583;HTU21D;64161;46.312;44.310;2022-10-20T08:36:10;15.28;66.79
75583;HTU21D;64161;46.312;44.310;2022-10-20T08:38:38;15.19;67.01
75583;HTU21D;64161;46.312;44.310;2022-10-20T08:41:09;15.14;67.28
75583;HTU21D;64161;46.312;44.310;2022-10-20T08:43:39;15.14;67.51
75583;HTU21D;64161;46.312;44.310;2022-10-20T08:46:13;15.17;67.59
75583;HTU21D;64161;46.312;44.310;2022-10-20T08:48:41;15.19;67.39
75583;HTU21D;64161;46.312;44.310;2022-10-20T08:51:21;15.16;67.41
75583;HTU21D;64161;46.312;44.310;2022-10-20T08:53:52;15.16;67.30
75583;HTU21D;64161;46.312;44.310;2022-10-20T08:56:27;15.15;67.47
75583;HTU21D;64161;46.312;44.310;2022-10-20T08:58:54;15.12;67.63
75583;HTU21D;64161;46.312;44.310;2022-10-20T09:01:23;15.09;68.59
75583;HTU21D;64161;46.312;44.310;2022-10-20T09:04:18;14.96;68.78
75583;HTU21D;64161;46.312;44.310;2022-10-20T09:06:51;14.75;69.65
75583;HTU21D;64161;46.312;44.310;2022-10-20T09:09:20;14.62;70.19
75583;HTU21D;64161;46.312;44.310;2022-10-20T09:11:47;14.49;71.14
75583;HTU21D;64161;46.312;44.310;2022-10-20T09:14:14;14.38;71.48
75583;HTU21D;64161;46.312;44.310;2022-10-20T09:16:44;14.26;71.58
75583;HTU21D;64161;46.312;44.310;2022-10-20T09:19:19;14.17;71.70
75583;HTU21D;64161;46.312;44.310;2022-10-20T09:21:51;14.08;72.48
75583;HTU21D;64161;46.312;44.310;2022-10-20T09:24:20;14.03;73.32
75583;HTU21D;64161;46.312;44.310;2022-10-20T09:26:48;13.95;73.33
75583;HTU21D;64161;46.312;44.310;2022-10-20T09:29:20;13.90;73.36
75583;HTU21D;64161;46.312;44.310;2022-10-20T09:31:53;13.83;73.37
75583;HTU21D;64161;46.312;44.310;2022-10-20T09:34:33;13.79;73.67
75583;HTU21D;64161;46.312;44.310;2022-10-20T09:42:27;13.70;74.40
75583;HTU21D;64161;46.312;44.310;2022-10-20T09:45:06;13.66;74.28
75583;HTU21D;64161;46.312;44.310;2022-10-20T09:47:48;13.65;74.59
75583;HTU21D;64161;46.312;44.310;2022-10-20T09:50:34;13.63;74.44
75583;HTU21D;64161;46.312;44.310;2022-10-20T09:53:07;13.60;74.98
75583;HTU21D;64161;46.312;44.310;2022-10-20T09:55:46;13.54;74.86
75583;HTU21D;64161;46.312;44.310;2022-10-20T10:00:57;13.46;74.90
75583;HTU21D;64161;46.312;44.310;2022-10-20T10:03:26;13.46;75.81
75583;HTU21D;64161;46.312;44.310;2022-10-20T10:05:55;13.46;75.76
75583;HTU21D;64161;46.312;44.310;2022-10-20T10:08:27;13.45;75.45
75583;HTU21D;64161;46.312;44.310;2022-10-20T10:11:00;13.47;75.60
75583;HTU21D;64161;46.312;44.310;2022-10-20T10:13:30;13.50;76.35
75583;HTU21D;64161;46.312;44.310;2022-10-20T10:15:58;13.44;74.84
75583;HTU21D;64161;46.312;44.310;2022-10-20T10:18:25;13.61;77.97
75583;HTU21D;64161;46.312;44.310;2022-10-20T10:21:08;13.85;76.34
75583;HTU21D;64161;46.312;44.310;2022-10-20T10:24:23;14.06;76.80
75583;HTU21D;64161;46.312;44.310;2022-10-20T10:26:45;14.21;75.26
75583;HTU21D;64161;46.312;44.310;2022-10-20T10:29:34;14.35;74.81
75583;HTU21D;64161;46.312;44.310;2022-10-20T10:32:17;14.48;75.44
75583;HTU21D;64161;46.312;44.310;2022-10-20T10:37:42;14.63;74.50
75583;HTU21D;64161;46.312;44.310;2022-10-20T10:40:15;14.62;74.48
75583;HTU21D;64161;46.312;44.310;2022-10-20T10:46:10;14.48;74.06
75583;HTU21D;64161;46.312;44.310;2022-10-20T10:55:13;14.19;74.60
75583;HTU21D;64161;46.312;44.310;2022-10-20T11:26:49;14.70;75.30
75583;HTU21D;64161;46.312;44.310;2022-10-20T11:29:29;14.79;75.41
75583;HTU21D;64161;46.312;44.310;2022-10-20T11:37:30;15.01;75.38
75583;HTU21D;64161;46.312;44.310;2022-10-20T11:48:51;15.33;74.90
75583;HTU21D;64161;46.312;44.310;2022-10-20T11:54:34;15.53;74.80
75583;HTU21D;64161;46.312;44.310;2022-10-20T12:05:34;15.71;73.82
75583;HTU21D;64161;46.312;44.310;2022-10-20T12:08:43;15.68;73.75
75583;HTU21D;64161;46.312;44.310;2022-10-20T12:11:45;15.65;73.84
75583;HTU21D;64161;46.312;44.310;2022-10-20T12:19:32;15.63;73.53
75583;HTU21D;64161;46.312;44.310;2022-10-20T12:24:36;15.68;74.35
75583;HTU21D;64161;46.312;44.310;2022-10-20T12:39:54;16.30;72.83
75583;HTU21D;64161;46.312;44.310;2022-10-20T12:44:54;16.33;72.04
75583;HTU21D;64161;46.312;44.310;2022-10-20T12:47:26;16.22;72.00
75583;HTU21D;64161;46.312;44.310;2022-10-20T12:50:02;16.07;72.35
75583;HTU21D;64161;46.312;44.310;2022-10-20T12:52:35;15.97;72.83
75583;HTU21D;64161;46.312;44.310;2022-10-20T12:55:26;15.86;72.77
75583;HTU21D;64161;46.312;44.310;2022-10-20T12:58:31;15.78;73.17
75583;HTU21D;64161;46.312;44.310;2022-10-20T13:03:42;15.74;73.77
75583;HTU21D;64161;46.312;44.310;2022-10-20T13:16:49;15.61;74.46
75583;HTU21D;64161;46.312;44.310;2022-10-20T13:19:34;15.58;74.52
75583;HTU21D;64161;46.312;44.310;2022-10-20T13:22:45;15.48;74.30
75583;HTU21D;64161;46.312;44.310;2022-10-20T13:25:35;15.44;74.52
75583;HTU21D;64161;46.312;44.310;2022-10-20T13:31:05;15.33;74.73
75583;HTU21D;64161;46.312;44.310;2022-10-20T13:33:45;15.29;75.29
75583;HTU21D;64161;46.312;44.310;2022-10-20T13:42:08;15.14;75.88
75583;HTU21D;64161;46.312;44.310;2022-10-20T13:47:47;15.00;75.65
75583;HTU21D;64161;46.312;44.310;2022-10-20T13:50:21;14.96;76.36
75583;HTU21D;64161;46.312;44.310;2022-10-20T13:52:51;14.92;76.85
75583;HTU21D;64161;46.312;44.310;2022-10-20T13:55:25;14.85;77.10
75583;HTU21D;64161;46.312;44.310;2022-10-20T13:58:06;14.83;76.41
75583;HTU21D;64161;46.312;44.310;2022-10-20T14:00:39;14.82;77.40
75583;HTU21D;64161;46.312;44.310;2022-10-20T14:03:15;14.75;77.04
75583;HTU21D;64161;46.312;44.310;2022-10-20T14:05:42;14.65;76.31
75583;HTU21D;64161;46.312;44.310;2022-10-20T14:08:10;14.64;77.78
75583;HTU21D;64161;46.312;44.310;2022-10-20T14:10:44;14.59;77.85
75583;HTU21D;64161;46.312;44.310;2022-10-20T14:13:15;14.58;78.14
75583;HTU21D;64161;46.312;44.310;2022-10-20T14:15:49;14.49;77.12
75583;HTU21D;64161;46.312;44.310;2022-10-20T14:18:24;14.49;77.57
75583;HTU21D;64161;46.312;44.310;2022-10-20T14:20:59;14.49;78.69
75583;HTU21D;64161;46.312;44.310;2022-10-20T14:23:38;14.48;78.29
75583;HTU21D;64161;46.312;44.310;2022-10-20T14:26:20;14.50;79.03
75583;HTU21D;64161;46.312;44.310;2022-10-20T14:28:49;14.50;78.85
75583;HTU21D;64161;46.312;44.310;2022-10-20T14:31:15;14.50;78.69
75583;HTU21D;64161;46.312;44.310;2022-10-20T14:33:46;14.53;78.66
75583;HTU21D;64161;46.312;44.310;2022-10-20T14:36:26;14.51;77.85
75583;HTU21D;64161;46.312;44.310;2022-10-20T14:38:57;14.53;78.37
75583;HTU21D;64161;46.312;44.310;2022-10-20T14:41:41;14.53;78.14
75583;HTU21D;64161;46.312;44.310;2022-10-20T14:44:18;14.56;78.56
75583;HTU21D;64161;46.312;44.310;2022-10-20T14:46:47;14.57;78.43
75583;HTU21D;64161;46.312;44.310;2022-10-20T14:49:22;14.57;78.50
75583;HTU21D;64161;46.312;44.310;2022-10-20T14:52:03;14.56;78.07
75583;HTU21D;64161;46.312;44.310;2022-10-20T14:56:58;14.55;78.76
75583;HTU21D;64161;46.312;44.310;2022-10-20T14:59:32;14.55;78.68
75583;HTU21D;64161;46.312;44.310;2022-10-20T15:04:36;14.55;78.90
75583;HTU21D;64161;46.312;44.310;2022-10-20T15:07:16;14.53;78.98
75583;HTU21D;64161;46.312;44.310;2022-10-20T15:09:46;14.56;79.12
75583;HTU21D;64161;46.312;44.310;2022-10-20T15:12:15;14.54;79.02
75583;HTU21D;64161;46.312;44.310;2022-10-20T15:14:48;14.53;78.99
75583;HTU21D;64161;46.312;44.310;2022-10-20T15:25:57;14.37;78.28
75583;HTU21D;64161;46.312;44.310;2022-10-20T15:31:29;14.41;79.14
75583;HTU21D;64161;46.312;44.310;2022-10-20T15:33:57;14.44;78.13
75583;HTU21D;64161;46.312;44.310;2022-10-20T15:36:32;14.50;77.67
75583;HTU21D;64161;46.312;44.310;2022-10-20T15:39:04;14.50;76.61
75583;HTU21D;64161;46.312;44.310;2022-10-20T15:41:33;14.51;75.76
75583;HTU21D;64161;46.312;44.310;2022-10-20T15:46:33;14.60;78.85
75583;HTU21D;64161;46.312;44.310;2022-10-20T15:49:07;14.69;76.41
75583;HTU21D;64161;46.312;44.310;2022-10-20T15:51:35;14.67;74.43
75583;HTU21D;64161;46.312;44.310;2022-10-20T15:54:02;14.59;73.92
75583;HTU21D;64161;46.312;44.310;2022-10-20T15:56:28;14.63;73.98
75583;HTU21D;64161;46.312;44.310;2022-10-20T15:58:54;14.60;73.06
75583;HTU21D;64161;46.312;44.310;2022-10-20T16:01:21;14.59;73.02
75583;HTU21D;64161;46.312;44.310;2022-10-20T16:03:48;14.57;73.86
75583;HTU21D;64161;46.312;44.310;2022-10-20T16:06:17;14.54;79.37
75583;HTU21D;64161;46.312;44.310;2022-10-20T16:08:46;14.54;76.05
75583;HTU21D;64161;46.312;44.310;2022-10-20T16:11:14;14.49;73.83
75583;HTU21D;64161;46.312;44.310;2022-10-20T16:13:40;14.45;73.86
75583;HTU21D;64161;46.312;44.310;2022-10-20T16:16:12;14.42;72.51
75583;HTU21D;64161;46.312;44.310;2022-10-20T16:18:41;14.41;72.23
75583;HTU21D;64161;46.312;44.310;2022-10-20T16:21:08;14.34;71.16
75583;HTU21D;64161;46.312;44.310;2022-10-20T16:23:36;14.26;71.06
75583;HTU21D;64161;46.312;44.310;2022-10-20T16:26:05;14.20;72.90
75583;HTU21D;64161;46.312;44.310;2022-10-20T16:28:33;14.25;71.13
75583;HTU21D;64161;46.312;44.310;2022-10-20T16:31:08;14.37;71.11
75583;HTU21D;64161;46.312;44.310;2022-10-20T16:33:35;14.49;74.45
75583;HTU21D;64161;46.312;44.310;2022-10-20T16:36:07;14.57;73.09
75583;HTU21D;64161;46.312;44.310;2022-10-20T16:38:34;14.70;71.35
75583;HTU21D;64161;46.312;44.310;2022-10-20T16:41:03;14.82;69.90
75583;HTU21D;64161;46.312;44.310;2022-10-20T16:43:30;14.97;72.74
75583;HTU21D;64161;46.312;44.310;2022-10-20T16:45:57;15.10;70.02
75583;HTU21D;64161;46.312;44.310;2022-10-20T16:48:23;15.29;70.46
75583;HTU21D;64161;46.312;44.310;2022-10-20T16:50:51;15.51;67.23
75583;HTU21D;64161;46.312;44.310;2022-10-20T16:53:17;15.69;68.94
75583;HTU21D;64161;46.312;44.310;2022-10-20T16:56:03;15.85;69.98
75583;HTU21D;64161;46.312;44.310;2022-10-20T16:58:30;16.03;66.92
75583;HTU21D;64161;46.312;44.310;2022-10-20T17:01:05;16.17;67.73
75583;HTU21D;64161;46.312;44.310;2022-10-20T17:03:34;16.31;67.55
75583;HTU21D;64161;46.312;44.310;2022-10-20T17:06:04;16.46;65.81
75583;HTU21D;64161;46.312;44.310;2022-10-20T17:08:30;16.49;64.09
75583;HTU21D;64161;46.312;44.310;2022-10-20T17:11:05;16.56;64.68
75583;HTU21D;64161;46.312;44.310;2022-10-20T17:13:33;16.70;65.40
75583;HTU21D;64161;46.312;44.310;2022-10-20T17:16:07;16.82;63.61
75583;HTU21D;64161;46.312;44.310;2022-10-20T17:18:34;16.95;63.08
75583;HTU21D;64161;46.312;44.310;2022-10-20T17:21:00;17.07;63.15
75583;HTU21D;64161;46.312;44.310;2022-10-20T17:23:29;17.16;62.21
75583;HTU21D;64161;46.312;44.310;2022-10-20T17:25:58;17.18;63.32
75583;HTU21D;64161;46.312;44.310;2022-10-20T17:28:29;17.28;61.86
75583;HTU21D;64161;46.312;44.310;2022-10-20T17:30:56;17.32;61.04
75583;HTU21D;64161;46.312;44.310;2022-10-20T17:33:26;17.28;59.60
75583;HTU21D;64161;46.312;44.310;2022-10-20T17:35:54;17.09;58.78
75583;HTU21D;64161;46.312;44.310;2022-10-20T17:38:25;16.79;58.98
75583;HTU21D;64161;46.312;44.310;2022-10-20T17:40:52;16.41;59.22
75583;HTU21D;64161;46.312;44.310;2022-10-20T17:43:20;16.03;59.63
75583;HTU21D;64161;46.312;44.310;2022-10-20T17:46:00;15.65;61.29
75583;HTU21D;64161;46.312;44.310;2022-10-20T17:48:27;15.36;60.54
75583;HTU21D;64161;46.312;44.310;2022-10-20T17:51:06;15.06;61.96
75583;HTU21D;64161;46.312;44.310;2022-10-20T17:53:34;14.80;61.59
75583;HTU21D;64161;46.312;44.310;2022-10-20T17:56:12;14.54;62.07
75583;HTU21D;64161;46.312;44.310;2022-10-20T17:58:41;14.30;62.26
75583;HTU21D;64161;46.312;44.310;2022-10-20T18:01:16;14.06;63.10
75583;HTU21D;64161;46.312;44.310;2022-10-20T18:03:45;13.84;62.94
75583;HTU21D;64161;46.312;44.310;2022-10-20T18:06:18;13.61;63.53
75583;HTU21D;64161;46.312;44.310;2022-10-20T18:08:45;13.40;63.68
75583;HTU21D;64161;46.312;44.310;2022-10-20T18:11:18;13.18;64.19
75583;HTU21D;64161;46.312;44.310;2022-10-20T18:13:45;12.97;64.52
75583;HTU21D;64161;46.312;44.310;2022-10-20T18:16:15;12.78;64.86
75583;HTU21D;64161;46.312;44.310;2022-10-20T18:18:42;12.59;65.69
75583;HTU21D;64161;46.312;44.310;2022-10-20T18:21:10;12.42;65.64
75583;HTU21D;64161;46.312;44.310;2022-10-20T18:23:37;12.25;66.21
75583;HTU21D;64161;46.312;44.310;2022-10-20T18:26:24;12.05;66.46
75583;HTU21D;64161;46.312;44.310;2022-10-20T18:28:51;11.94;66.98
75583;HTU21D;64161;46.312;44.310;2022-10-20T18:31:22;11.81;67.32